Station: Eildon Fire Tower  

  Atmospheric Gas Attenuation - ITU Rec 676-11   ----------------- dB/100km -----------------
Date Time Temp RH % AH g/m3 Dew Point Wind Direction Speed kph Gust kph Barometer mB Rainfall Since 9am 24GHz 47GHz 76GHz 122GHz 134GHz 241GHz
08/05 12:30 9.5 98 8.92 9.2 26 39 1013.1 0 20.5 27.7 43.4 114.0 108.6 373.4
08/05 12:20 9.5 98 8.92 9.2 26 32 1013.1 0 20.5 27.7 43.4 114.0 108.6 373.4
08/05 12:10 9.7 98 9.04 9.4 20 26 1013.1 0 20.7 27.9 43.8 115.1 110.0 378.4
08/05 12:00 9.2 98 8.75 8.9 32 39 1013.1 0 20.1 27.5 42.8 112.5 106.6 366.4
08/05 11:50 9.1 98 8.7 8.8 30 37 1013.1 0 20.0 27.5 42.7 112.1 106.0 364.4
08/05 11:40 9.4 98 8.87 9.1 26 32 1013.1 0 20.4 27.7 43.2 113.6 108.0 371.4
08/05 11:30 9.6 98 8.98 9.3 28 43 1013.1 0 20.6 27.8 43.6 114.5 109.3 375.9
08/05 11:20 9.8 98 9.09 9.5 24 32 1013.1 0 20.8 27.9 44.0 115.5 110.5 380.4
08/05 11:10 9.5 98 8.92 9.2 30 35 1013.1 0 20.5 27.7 43.4 114.0 108.6 373.4
08/05 11:00 9.1 98 8.7 8.8 24 33 1013.1 0 20.0 27.5 42.7 112.1 106.0 364.4
08/05 10:50 9.1 98 8.7 8.8 24 30 1013.1 0 20.0 27.5 42.7 112.1 106.0 364.4
08/05 10:40 9.1 98 8.7 8.8 19 20 1013.1 0 20.0 27.5 42.7 112.1 106.0 364.4
08/05 10:30 8.9 98 8.59 8.6 22 28 1013.1 0 19.8 27.3 42.3 111.1 104.7 359.9
08/05 10:20 8.9 98 8.59 8.6 20 24 1013.1 0 19.8 27.3 42.3 111.1 104.7 359.9
08/05 10:10 8.7 98 8.48 8.4 22 26 1013.1 0 19.6 27.2 41.9 110.1 103.4 355.4
08/05 10:00 8.7 98 8.48 8.4 20 32 1013.1 0 19.6 27.2 41.9 110.1 103.4 355.4
08/05 09:50 8.9 98 8.59 8.6 24 26 1013.1 0 19.8 27.3 42.3 111.1 104.7 359.9
08/05 09:40 8.5 98 8.37 8.2 24 30 1013.1 0 19.4 27.1 41.6 109.1 102.2 350.9
08/05 09:30 8.5 98 8.37 8.2 24 35 1013.1 0 19.4 27.1 41.6 109.1 102.2 350.9
08/05 09:20 8.5 98 8.37 8.2 24 33 1013.1 0 19.4 27.1 41.6 109.1 102.2 350.9
08/05 09:10 8.4 98 8.32 8.1 32 46 1013.1 0 19.2 27.0 41.4 108.7 101.6 348.9
08/05 09:00 8.4 98 8.32 8.1 24 37 1013.1 0 19.2 27.0 41.4 108.7 101.6 348.9
08/05 08:50 8.6 98 8.42 8.3 22 30 1013.1 8 19.5 27.1 41.7 109.6 102.7 352.9
08/05 08:40 8.6 98 8.42 8.3 33 43 1013.1 8 19.5 27.1 41.7 109.6 102.7 352.9
08/05 08:30 8.6 98 8.42 8.3 30 46 1013.1 8 19.5 27.1 41.7 109.6 102.7 352.9
08/05 08:20 8.6 98 8.42 8.3 20 32 1013.1 8 19.5 27.1 41.7 109.6 102.7 352.9
08/05 08:10 8.5 98 8.37 8.2 35 43 1013.1 7.8 19.4 27.1 41.6 109.1 102.2 350.9
08/05 08:00 8.5 98 8.37 8.2 37 50 1013.1 7.8 19.4 27.1 41.6 109.1 102.2 350.9
08/05 07:50 8.5 98 8.37 8.2 33 39 1013.1 7.8 19.4 27.1 41.6 109.1 102.2 350.9
08/05 07:40 8.5 98 8.37 8.2 33 39 1013.1 7.8 19.4 27.1 41.6 109.1 102.2 350.9
08/05 07:30 8.4 98 8.32 8.1 39 50 1013.1 7.8 19.2 27.0 41.4 108.7 101.6 348.9
08/05 07:20 8.4 98 8.32 8.1 39 44 1013.1 7.8 19.2 27.0 41.4 108.7 101.6 348.9
08/05 07:10 8.3 98 8.26 8 37 44 1013.1 7.8 19.1 27.0 41.2 108.2 100.9 346.4
08/05 07:00 8.3 98 8.26 8 35 46 1013.1 7.8 19.1 27.0 41.2 108.2 100.9 346.4
08/05 06:50 8.2 98 8.21 7.9 33 39 1013.1 7.8 19.0 26.9 41.0 107.7 100.3 344.4
08/05 06:40 8.1 98 8.16 7.8 33 37 1013.1 7.8 18.9 26.9 40.9 107.3 99.7 342.4
08/05 06:30 8 98 8.11 7.7 32 46 1013.1 7.6 18.8 26.8 40.7 106.9 99.2 340.3
08/05 06:20 8 98 8.11 7.7 33 46 1013.1 7.6 18.8 26.8 40.7 106.9 99.2 340.3
08/05 06:10 7.9 98 8.05 7.6 24 28 1013.1 7.6 18.7 26.7 40.5 106.3 98.4 337.8
08/05 06:00 7.8 98 8 7.5 30 37 1013.1 7.6 18.6 26.7 40.4 105.9 97.9 335.8
08/05 05:50 7.8 98 8 7.5 33 37 1013.1 7.4 18.6 26.7 40.4 105.9 97.9 335.8
08/05 05:40 7.9 98 8.05 7.6 30 33 1013.1 7.4 18.7 26.7 40.5 106.3 98.4 337.8
08/05 05:30 8 98 8.11 7.7 28 39 1013.1 7.4 18.8 26.8 40.7 106.9 99.2 340.3
08/05 05:20 7.9 98 8.05 7.6 30 33 1013.1 7.4 18.7 26.7 40.5 106.3 98.4 337.8
08/05 05:10 7.8 98 8 7.5 32 35 1013.1 7.4 18.6 26.7 40.4 105.9 97.9 335.8
08/05 05:00 7.7 98 7.95 7.4 24 30 1013.1 7.2 18.5 26.6 40.2 105.5 97.3 333.8
08/05 04:50 7.6 98 7.9 7.3 28 30 1013.1 7.2 18.4 26.6 40.0 105.0 96.7 331.8
08/05 04:40 7.6 98 7.9 7.3 28 32 1013.1 7.2 18.4 26.6 40.0 105.0 96.7 331.8
08/05 04:30 7.5 98 7.85 7.2 26 35 1013.1 7.2 18.3 26.5 39.9 104.6 96.1 329.7
08/05 04:20 7.5 98 7.85 7.2 28 32 1013.1 7.2 18.3 26.5 39.9 104.6 96.1 329.7
08/05 04:10 7.5 98 7.85 7.2 30 33 1013.1 7.2 18.3 26.5 39.9 104.6 96.1 329.7
08/05 04:00 7.4 98 7.8 7.1 26 32 1013.1 7.2 18.2 26.4 39.7 104.2 95.6 327.7
08/05 03:50 7.4 98 7.8 7.1 28 35 1013.1 7.2 18.2 26.4 39.7 104.2 95.6 327.7
08/05 03:40 7.3 98 7.75 7 24 28 1013.1 7 18.1 26.4 39.5 103.7 95.0 325.7
08/05 03:30 7.1 98 7.65 6.8 24 33 1013.1 7 17.9 26.3 39.2 102.9 93.8 321.6
08/05 03:20 7 98 7.6 6.7 22 28 1013.1 7 17.8 26.2 39.1 102.4 93.3 319.6
08/05 03:10 6.9 98 7.55 6.6 26 30 1013.1 7 17.7 26.2 38.9 102.0 92.7 317.5
08/05 03:00 6.9 98 7.55 6.6 24 28 1013.1 7 17.7 26.2 38.9 102.0 92.7 317.5
08/05 02:50 6.8 98 7.5 6.5 22 30 1013.1 6.8 17.6 26.1 38.7 101.5 92.1 315.5
08/05 02:40 6.8 98 7.5 6.5 28 32 1013.1 6.8 17.6 26.1 38.7 101.5 92.1 315.5
08/05 02:30 6.5 98 7.35 6.2 26 33 1013.1 6.8 17.2 25.9 38.2 100.2 90.4 309.4
08/05 02:20 6.2 98 7.21 5.9 24 30 1013.1 6.6 16.9 25.8 37.8 99.0 88.8 303.8
08/05 02:10 6.1 98 7.16 5.8 24 28 1013.1 6.6 16.8 25.7 37.6 98.6 88.2 301.7
08/05 02:00 6 98 7.12 5.7 19 26 1013.1 6.6 16.8 25.7 37.5 98.3 87.8 300.1
08/05 01:50 5.9 98 7.07 5.6 20 26 1013.1 6.4 16.7 25.6 37.4 97.8 87.2 298.1
08/05 01:40 5.8 98 7.02 5.5 17 20 1013.1 6.2 16.6 25.6 37.2 97.4 86.6 296.0
08/05 01:30 5.7 98 6.98 5.4 15 20 1013.1 6 16.5 25.6 37.1 97.1 86.1 294.5
08/05 01:20 5.7 98 6.98 5.4 15 19 1013.1 6 16.5 25.6 37.1 97.1 86.1 294.5
08/05 01:10 5.7 98 6.98 5.4 15 19 1013.1 5.8 16.5 25.6 37.1 97.1 86.1 294.5
08/05 01:00 5.6 98 6.93 5.3 11 17 1013.1 5.8 16.4 25.5 36.9 96.6 85.6 292.4
08/05 00:50 5.6 98 6.93 5.3 13 15 1013.1 5.6 16.4 25.5 36.9 96.6 85.6 292.4
08/05 00:40 5.6 98 6.93 5.3 13 17 1013.1 5.6 16.4 25.5 36.9 96.6 85.6 292.4
08/05 00:30 5.5 98 6.89 5.2 15 22 1013.1 5.2 16.3 25.5 36.8 96.3 85.1 290.9
08/05 00:20 5.5 98 6.89 5.2 17 19 1013.1 5.2 16.3 25.5 36.8 96.3 85.1 290.9
08/05 00:10 5.5 98 6.89 5.2 15 19 1013.1 5 16.3 25.5 36.8 96.3 85.1 290.9
08/05 00:00 5.5 98 6.89 5.2 17 22 1013.1 5 16.3 25.5 36.8 96.3 85.1 290.9
07/05 23:50 5.5 98 6.89 5.2 17 20 1013.1 5 16.3 25.5 36.8 96.3 85.1 290.9
07/05 23:40 5.5 98 6.89 5.2 19 20 1013.1 4.8 16.3 25.5 36.8 96.3 85.1 290.9
07/05 23:30 5.5 98 6.89 5.2 22 28 1013.1 4.8 16.3 25.5 36.8 96.3 85.1 290.9
07/05 23:20 5.5 98 6.89 5.2 24 28 1013.1 4.6 16.3 25.5 36.8 96.3 85.1 290.9
07/05 23:10 5.5 98 6.89 5.2 20 24 1013.1 4.6 16.3 25.5 36.8 96.3 85.1 290.9
07/05 23:00 5.5 98 6.89 5.2 20 26 1013.1 4.6 16.3 25.5 36.8 96.3 85.1 290.9
07/05 22:50 5.4 98 6.84 5.1 22 24 1013.1 4.4 16.2 25.4 36.6 95.9 84.5 288.8
07/05 22:40 5.4 98 6.84 5.1 22 24 1013.1 4.4 16.2 25.4 36.6 95.9 84.5 288.8
07/05 22:30 5.4 98 6.84 5.1 28 33 1013.1 4.4 16.2 25.4 36.6 95.9 84.5 288.8
07/05 22:20 5.3 98 6.8 5 30 33 1013.1 4.4 16.1 25.4 36.5 95.6 84.1 287.2
07/05 22:10 5.3 98 6.8 5 32 35 1013.1 4.4 16.1 25.4 36.5 95.6 84.1 287.2
07/05 22:00 5.3 98 6.8 5 30 39 1013.1 4.4 16.1 25.4 36.5 95.6 84.1 287.2
07/05 21:50 5.2 98 6.75 4.9 28 32 1013.1 4.2 16.0 25.3 36.3 95.1 83.5 285.2
07/05 21:40 5.2 98 6.75 4.9 28 32 1013.1 4.2 16.0 25.3 36.3 95.1 83.5 285.2
07/05 21:30 5.2 98 6.75 4.9 30 37 1013.1 4.2 16.0 25.3 36.3 95.1 83.5 285.2
07/05 21:20 5.1 98 6.71 4.8 30 33 1013.1 4.2 15.9 25.3 36.2 94.8 83.1 283.6
07/05 21:10 5.1 98 6.71 4.8 30 33 1013.1 4.2 15.9 25.3 36.2 94.8 83.1 283.6
07/05 21:00 5.1 98 6.71 4.8 28 33 1013.1 4.2 15.9 25.3 36.2 94.8 83.1 283.6
07/05 20:50 5 97 6.6 4.5 24 30 1013.1 4.2 15.7 25.1 35.8 93.7 81.7 278.6
07/05 20:40 5 97 6.6 4.5 28 30 1013.1 4.2 15.7 25.1 35.8 93.7 81.7 278.6
07/05 20:30 5.1 97 6.64 4.7 24 28 1013.1 4.2 15.8 25.2 35.9 94.0 82.1 280.2
07/05 20:20 5.1 97 6.64 4.6 22 24 1013.1 4.2 15.8 25.2 35.9 94.0 82.1 280.2
07/05 20:10 5 97 6.6 4.5 24 28 1013.1 4.2 15.7 25.1 35.8 93.7 81.7 278.6
07/05 20:00 5 98 6.66 4.7 26 33 1013.1 4.2 15.8 25.2 36.0 94.4 82.5 281.5

Last Refresh: 08-May-2026 12:07:38

Bureau of Meteorology